AV - LB | Pilotos de la V.A




 METAR AND TAF INFORMATION
METAR FOR SAAR
ADDS - METARS form results

(1603 UTC 01 March 2021)
Data provider http://aviationweather.gov/metar/data/
 
Forecast for: SAAR (ROSARIO AIRPORT , AR)
Text: TAF SAAR 011100Z 0112/0212 07010KT CAVOK TX33/0119Z TN24/0209Z
Forecast period: 1200 UTC 01 March 2021 to 1200 UTC 02 March 2021
Forecast type: FROM: standard forecast or significant change
Winds: from the ENE (70 degrees) at 12 MPH (10 knots; 5.1 m/s)
Visibility: 6 or more miles (10+ km)
Ceiling: unknown
Clouds: missing
Weather: no significant weather forecast for this period
Text: PROB30
Forecast period: 1200 to 1500 UTC 01 March 2021
Forecast type: TEMPORARY: The following changes expected for less than half the time period
Winds: from the NNE (20 degrees) at 12 MPH (10 knots; 5.1 m/s)
Visibility: 6 miles (9 km)
Ceiling: 4000 feet AGL
Clouds: broken clouds at 4000 feet AGL
Weather: -DZ  (light drizzle)

 AIRPORT MAP

 RUNWAY INFORMATION
Runway 02 Runway length 9842 ft Runway width 148 ft
Runway elevation 82 ft Runway displaced threshold 0 ft Runway heading 10
Runway 20 Runway length 9842 ft Runway width 148 ft
Runway elevation 77 ft Runway displaced threshold 0 ft Runway heading 190

 AIRPORT FREQUENCIES
Type TWR Name TWR/APP Frequency 118.7 MHZ

 AIRPORT NEAR NAVIGATION AIDS
Type VOR-DME Name Rosario Frequency 117300 KHZ